Weather History for Socorro, NM

Change the Weather History Date:

Sunday, May 4, 2014

  Actual Average Record
Temperature  
Mean Temperature 68 °F -  
Max Temperature 88 °F 80 °F 89 °F (2012)
Min Temperature 47 °F 41 °F 40 °F (2013)
Cooling Degree Days 2    
Growing Degree Days 18 (Base 50)    
Moisture  
Dew Point 13 °F    
Average Humidity 12    
Maximum Humidity 25    
Minimum Humidity 5    
Precipitation  
Precipitation 0.00 in - - ()
Sea Level Pressure  
Sea Level Pressure 30.06 in    
Wind  
Wind Speed 6 mph (South)    
Max Wind Speed 22 mph    
Max Gust Speed 28 mph    
Visibility 10 miles    
Events      
Averages and records for this station are not official NWS values.
T = Trace of Precipitation, MM = Missing Value Source: NWS Daily Summary

Daily Weather History Graph

Daily Weather History Graph

Search for Another Location

Airport:

Trip Planner

Search our weather history database for the weather conditions in past years. The results will help you decide how hot, cold, wet, or windy it might be!

Date:

Astronomy

May. 04, 2014 Rise Set
Actual Time 6:15 AM MDT 7:53 PM MDT
Civil Twilight 5:48 AM MDT 8:20 PM MDT
Nautical Twilight 5:16 AM MDT 8:53 PM MDT
Astronomical Twilight 4:42 AM MDT 9:27 PM MDT
Moon 10:43 AM MDT (5/4) No Moon Set
Length of Visible Light 14h 32m
Length of Day
13h 38m
Waxing Crescent, 28% of the Moon is Illuminated
May 4
Waxing Crescent
May 6
First Quarter
May 14
Full
May 21
Last Quarter
May 28
New

Hourly Weather History & Observations

Time (MDT) Temp. Dew Point Humidity Pressure Visibility Wind Dir Wind Speed Gust Speed Precip Events Conditions
12:15 AM 60.4 °F 13.3 °F 16% 30.08 in 10.0 mi SSE 9.2 mph - N/A   Clear
12:35 AM 60.3 °F 13.6 °F 16% 30.08 in 10.0 mi SSE 8.1 mph - N/A   Clear
12:55 AM 57.2 °F 14.4 °F 19% 30.08 in 10.0 mi SSE 6.9 mph - N/A   Clear
1:15 AM 56.5 °F 14.9 °F 19% 30.08 in 10.0 mi SE 4.6 mph - N/A   Clear
1:35 AM 57.9 °F 14.2 °F 18% 30.09 in 10.0 mi ESE 8.1 mph - N/A   Clear
1:55 AM 56.3 °F 14.0 °F 19% 30.09 in 10.0 mi SE 5.8 mph - N/A   Clear
2:15 AM 56.3 °F 13.6 °F 19% 30.09 in 10.0 mi Calm Calm - N/A   Clear
2:35 AM 55.2 °F 13.6 °F 19% 30.08 in 10.0 mi SSW 3.5 mph - N/A   Clear
2:55 AM 53.6 °F 14.0 °F 21% 30.08 in 10.0 mi South 5.8 mph - N/A   Clear
3:15 AM 52.3 °F 13.6 °F 21% 30.08 in 10.0 mi Calm Calm - N/A   Clear
3:35 AM 54.7 °F 14.0 °F 20% 30.09 in 10.0 mi Calm Calm - N/A   Clear
3:55 AM 50.7 °F 13.3 °F 22% 30.10 in 10.0 mi Calm Calm - N/A   Clear
4:15 AM 50.2 °F 13.1 °F 23% 30.11 in 10.0 mi Calm Calm - N/A   Clear
4:35 AM 48.0 °F 12.6 °F 24% 30.11 in 10.0 mi WSW 3.5 mph - N/A   Clear
4:55 AM 48.6 °F 12.9 °F 24% 30.11 in 10.0 mi WSW 4.6 mph - N/A   Clear
5:15 AM 48.0 °F 13.1 °F 25% 30.11 in 10.0 mi SW 4.6 mph - N/A   Clear
5:35 AM 48.0 °F 12.7 °F 24% 30.11 in 10.0 mi SW 3.5 mph - N/A   Clear
5:55 AM 48.4 °F 12.2 °F 23% 30.11 in 10.0 mi SW 4.6 mph - N/A   Clear
6:15 AM 47.8 °F 12.2 °F 24% 30.12 in 10.0 mi SW 3.5 mph - N/A   Clear
6:35 AM 48.2 °F 12.4 °F 24% 30.13 in 10.0 mi SSW 4.6 mph - N/A   Clear
6:55 AM 51.4 °F 12.9 °F 22% 30.14 in 10.0 mi SW 3.5 mph - N/A   Clear
7:15 AM 55.6 °F 14.0 °F 19% 30.14 in 10.0 mi Calm Calm - N/A   Clear
7:35 AM 59.2 °F 14.4 °F 17% 30.14 in 10.0 mi Calm Calm - N/A   Clear
7:55 AM 60.4 °F 14.7 °F 17% 30.15 in 10.0 mi Calm Calm - N/A   Clear
8:15 AM 61.9 °F 13.3 °F 15% 30.15 in 10.0 mi Calm Calm - N/A   Clear
8:35 AM 63.5 °F 13.5 °F 14% 30.16 in 10.0 mi SE 3.5 mph - N/A   Clear
8:55 AM 65.1 °F 14.0 °F 14% 30.16 in 10.0 mi SSE 3.5 mph - N/A   Clear
9:15 AM 66.7 °F 13.1 °F 13% 30.17 in 10.0 mi SSE 5.8 mph - N/A   Clear
9:35 AM 67.8 °F 14.7 °F 13% 30.16 in 10.0 mi ESE 4.6 mph - N/A   Clear
9:55 AM 69.3 °F 15.1 °F 13% 30.16 in 10.0 mi ESE 4.6 mph - N/A   Clear
10:15 AM 71.2 °F 15.8 °F 12% 30.16 in 10.0 mi SSE 6.9 mph - N/A   Clear
10:35 AM 73.2 °F 16.3 °F 12% 30.16 in 10.0 mi SE 8.1 mph - N/A   Clear
10:55 AM 74.5 °F 16.2 °F 11% 30.15 in 10.0 mi SE 6.9 mph - N/A   Clear
11:15 AM 77.5 °F 17.1 °F 10% 30.14 in 10.0 mi SSE 8.1 mph - N/A   Clear
11:35 AM 79.0 °F 17.8 °F 10% 30.13 in 10.0 mi SSE 11.5 mph - N/A   Clear
11:55 AM 80.2 °F 16.9 °F 9% 30.12 in 10.0 mi SSE 9.2 mph - N/A   Clear
12:15 PM 81.7 °F 16.5 °F 9% 30.11 in 10.0 mi SSE 11.5 mph 16.1 mph N/A   Clear
12:35 PM 82.6 °F 16.3 °F 8% 30.10 in 10.0 mi SSE 10.4 mph 17.3 mph N/A   Clear
12:55 PM 83.7 °F 16.0 °F 8% 30.09 in 10.0 mi SE 10.4 mph - N/A   Clear
1:15 PM 84.4 °F 16.5 °F 8% 30.08 in 10.0 mi SE 10.4 mph 17.3 mph N/A   Clear
1:35 PM 84.9 °F 16.7 °F 8% 30.07 in 10.0 mi ESE 11.5 mph 17.3 mph N/A   Clear
1:55 PM 86.4 °F 15.8 °F 7% 30.06 in 10.0 mi SE 12.7 mph 17.3 mph N/A   Clear
2:15 PM 86.0 °F 15.6 °F 7% 30.05 in 10.0 mi ESE 6.9 mph - N/A   Clear
2:35 PM 85.3 °F 15.3 °F 7% 30.04 in 10.0 mi SE 6.9 mph - N/A   Clear
2:55 PM 86.4 °F 14.9 °F 7% 30.03 in 10.0 mi East 4.6 mph - N/A   Clear
3:15 PM 88.3 °F 14.5 °F 6% 30.02 in 10.0 mi NNE 4.6 mph - N/A   Clear
3:35 PM 88.0 °F 13.8 °F 6% 30.00 in 10.0 mi SSW 3.5 mph - N/A   Clear
3:55 PM 88.5 °F 13.3 °F 6% 29.99 in 10.0 mi North 4.6 mph - N/A   Clear
4:15 PM 88.9 °F 15.1 °F 7% 29.98 in 10.0 mi ESE 9.2 mph - N/A   Clear
4:35 PM 88.0 °F 14.2 °F 6% 29.97 in 10.0 mi East 5.8 mph - N/A   Clear
4:55 PM 88.9 °F 14.0 °F 6% 29.97 in 10.0 mi ENE 9.2 mph - N/A   Clear
5:15 PM 88.7 °F 14.5 °F 6% 29.97 in 10.0 mi Calm Calm - N/A   Clear
5:35 PM 87.8 °F 12.6 °F 6% 29.96 in 10.0 mi East 6.9 mph - N/A   Clear
5:55 PM 88.2 °F 8.2 °F 5% 29.96 in 10.0 mi SW 6.9 mph - N/A   Clear
6:15 PM 87.8 °F 7.5 °F 5% 29.96 in 10.0 mi WNW 10.4 mph - N/A   Clear
6:35 PM 87.1 °F 7.9 °F 5% 29.95 in 10.0 mi NW 6.9 mph - N/A   Clear
6:55 PM 86.0 °F 7.7 °F 5% 29.95 in 10.0 mi Calm Calm - N/A   Clear
7:15 PM 85.5 °F 9.1 °F 6% 29.95 in 10.0 mi WNW 6.9 mph - N/A   Clear
7:35 PM 83.3 °F 9.5 °F 6% 29.96 in 10.0 mi West 3.5 mph - N/A   Clear
7:55 PM 79.2 °F 9.7 °F 7% 29.96 in 10.0 mi West 6.9 mph - N/A   Clear
8:15 PM 77.9 °F 9.5 °F 7% 29.97 in 10.0 mi West 8.1 mph - N/A   Clear
8:35 PM 78.3 °F 9.5 °F 7% 29.98 in 10.0 mi WNW 8.1 mph - N/A   Clear
8:55 PM 78.6 °F 9.3 °F 7% 29.98 in 10.0 mi WNW 12.7 mph 17.3 mph N/A   Clear
9:15 PM 78.1 °F 8.8 °F 7% 29.99 in 10.0 mi WNW 12.7 mph 17.3 mph N/A   Clear
9:35 PM 78.1 °F 9.3 °F 7% 30.00 in 10.0 mi WNW 19.6 mph - N/A   Clear
9:55 PM 78.1 °F 9.1 °F 7% 30.01 in 10.0 mi West 20.7 mph 27.6 mph N/A   Clear
10:15 PM 77.7 °F 9.3 °F 7% 30.01 in 10.0 mi West 19.6 mph 26.5 mph N/A   Clear
10:35 PM 77.5 °F 10.0 °F 8% 30.01 in 10.0 mi West 21.9 mph 27.6 mph N/A   Clear
10:55 PM 76.8 °F 10.0 °F 8% 30.02 in 10.0 mi West 17.3 mph 24.2 mph N/A   Clear
11:15 PM 76.1 °F 10.4 °F 8% 30.04 in 10.0 mi North 8.1 mph 19.6 mph N/A   Clear
11:35 PM 71.1 °F 11.3 °F 10% 30.05 in 10.0 mi South 4.6 mph - N/A   Clear
11:55 PM 70.9 °F 11.3 °F 10% 30.05 in 10.0 mi Calm Calm - N/A   Clear